Time;durP1;ratioP1;P1;durP2;ratioP2;P2;SDS_P1;SDS_P2;PMS_P1;PMS_P2;Temp;Humidity;BMP_temperature;BMP_pressure;BME280_temperature;BME280_humidity;BME280_pressure;Samples;Min_cycle;Max_cycle;Signal;HPM_P1;HPM_P2
2022/11/27 00:02:03;;;;;;;8.23;4.30;;;;;;;;;;5090790;28;20024;-54
2022/11/27 00:04:29;;;;;;;7.65;4.70;;;;;;;;;;5091108;28;20383;-54
2022/11/27 00:06:55;;;;;;;9.20;4.80;;;;;;;;;;5091668;28;20031;-54
2022/11/27 00:09:21;;;;;;;8.07;4.45;;;;;;;;;;5091079;28;20035;-53
2022/11/27 00:11:47;;;;;;;7.53;4.38;;;;;;;;;;5104747;28;20051;-54
2022/11/27 00:14:14;;;;;;;9.20;4.85;;;;;;;;;;5111027;28;20119;-51
2022/11/27 00:16:40;;;;;;;7.13;4.15;;;;;;;;;;5111121;28;20608;-54
2022/11/27 00:19:06;;;;;;;6.38;4.18;;;;;;;;;;5111081;28;20193;-54
2022/11/27 00:21:33;;;;;;;6.38;3.63;;;;;;;;;;5111123;28;20030;-51
2022/11/27 00:24:00;;;;;;;5.97;3.53;;;;;;;;;;5111440;28;20016;-53
2022/11/27 00:26:27;;;;;;;5.78;3.75;;;;;;;;;;5109875;28;20036;-52
2022/11/27 00:28:53;;;;;;;6.68;3.78;;;;;;;;;;5111119;28;20102;-54
2022/11/27 00:31:28;;;;;;;6.55;3.95;;;;;;;;;;5110933;28;20024;-51
2022/11/27 00:33:57;;;;;;;7.28;4.30;;;;;;;;;;5110940;28;20031;-54
2022/11/27 00:36:24;;;;;;;7.80;4.53;;;;;;;;;;5110686;28;20657;-54
2022/11/27 00:38:50;;;;;;;5.68;3.90;;;;;;;;;;5092656;28;20039;-54
2022/11/27 00:41:23;;;;;;;8.85;4.35;;;;;;;;;;5090316;28;20024;-52
2022/11/27 00:43:49;;;;;;;7.07;4.70;;;;;;;;;;5090308;28;20024;-52
2022/11/27 00:46:16;;;;;;;6.93;4.63;;;;;;;;;;5103679;28;20295;-54
2022/11/27 00:48:42;;;;;;;8.02;4.70;;;;;;;;;;5110555;28;20062;-51
2022/11/27 00:51:10;;;;;;;6.75;4.75;;;;;;;;;;5110631;28;20035;-54
2022/11/27 00:53:36;;;;;;;8.30;4.72;;;;;;;;;;5110714;28;20440;-54
2022/11/27 00:56:02;;;;;;;6.40;4.45;;;;;;;;;;5098961;28;20028;-51
2022/11/27 00:58:29;;;;;;;8.20;4.90;;;;;;;;;;5090601;28;20499;-54
2022/11/27 01:00:59;;;;;;;10.13;5.45;;;;;;;;;;5089994;28;20069;-53
2022/11/27 01:03:25;;;;;;;7.97;4.97;;;;;;;;;;5090140;28;20023;-53
2022/11/27 06:10:14;;;;;;;8.00;4.97;;;;;;;;;;5096049;28;20103;-53
2022/11/27 06:12:40;;;;;;;7.63;5.07;;;;;;;;;;5094183;28;20032;-51
2022/11/27 06:15:06;;;;;;;7.40;4.75;;;;;;;;;;5095092;28;20089;-54
2022/11/27 06:17:32;;;;;;;7.85;5.22;;;;;;;;;;5094917;28;20422;-53
2022/11/27 06:19:58;;;;;;;8.15;4.47;;;;;;;;;;5093829;28;20036;-54
2022/11/27 06:22:24;;;;;;;7.47;4.55;;;;;;;;;;5094763;28;20056;-51
2022/11/27 06:24:50;;;;;;;7.30;5.10;;;;;;;;;;5096639;28;20043;-53
2022/11/27 06:27:16;;;;;;;8.82;5.10;;;;;;;;;;5115091;28;20085;-51
2022/11/27 06:29:42;;;;;;;9.20;5.10;;;;;;;;;;5115140;28;20390;-55
2022/11/27 06:32:08;;;;;;;8.32;4.88;;;;;;;;;;5115287;28;20509;-54
2022/11/27 06:34:34;;;;;;;7.80;4.60;;;;;;;;;;5114958;28;20058;-52
2022/11/27 06:37:00;;;;;;;8.52;4.95;;;;;;;;;;5114967;28;20027;-52
2022/11/27 06:39:26;;;;;;;6.82;4.45;;;;;;;;;;5114117;28;20424;-53
2022/11/27 06:41:52;;;;;;;7.45;4.43;;;;;;;;;;5105725;28;20095;-50
2022/11/27 06:44:18;;;;;;;7.95;4.88;;;;;;;;;;5094342;28;20032;-53
2022/11/27 06:46:44;;;;;;;5.82;3.80;;;;;;;;;;5094363;28;20024;-53
2022/11/27 06:49:10;;;;;;;7.10;4.72;;;;;;;;;;5094330;28;20035;-55
2022/11/27 06:51:36;;;;;;;7.50;4.30;;;;;;;;;;5099553;28;20047;-54
2022/11/27 06:54:02;;;;;;;6.15;4.22;;;;;;;;;;5114426;28;20035;-53
2022/11/27 06:56:29;;;;;;;5.65;3.65;;;;;;;;;;5114349;28;20035;-52
2022/11/27 06:58:56;;;;;;;6.97;4.10;;;;;;;;;;5114474;28;20064;-52
2022/11/27 07:01:23;;;;;;;7.40;4.30;;;;;;;;;;5113204;28;20027;-53
2022/11/27 07:03:49;;;;;;;8.88;4.53;;;;;;;;;;5102502;28;20064;-55
2022/11/27 07:06:17;;;;;;;5.47;3.17;;;;;;;;;;5112436;28;20432;-51
2022/11/27 07:08:43;;;;;;;6.85;4.10;;;;;;;;;;5092836;28;20035;-54
2022/11/27 07:11:13;;;;;;;6.53;3.75;;;;;;;;;;5108720;27;20028;-50
2022/11/27 07:13:39;;;;;;;5.53;3.53;;;;;;;;;;5113443;28;20032;-53
2022/11/27 07:16:07;;;;;;;5.55;3.47;;;;;;;;;;5113835;28;20047;-52
2022/11/27 07:18:52;;;;;;;4.75;3.70;;;;;;;;;;5113821;28;20098;-51
2022/11/27 07:21:18;;;;;;;5.80;3.40;;;;;;;;;;5112267;28;20034;-56
2022/11/27 07:23:45;;;;;;;6.25;3.53;;;;;;;;;;5102503;28;20055;-54
2022/11/27 07:26:11;;;;;;;5.35;3.42;;;;;;;;;;5126888;27;20369;-53
2022/11/27 07:28:37;;;;;;;4.70;2.95;;;;;;;;;;5113812;28;20041;-53
2022/11/27 07:31:03;;;;;;;4.10;2.90;;;;;;;;;;5113769;28;20135;-51
2022/11/27 07:33:29;;;;;;;4.45;2.80;;;;;;;;;;5112228;28;20089;-53
2022/11/27 07:35:59;;;;;;;4.72;3.05;;;;;;;;;;5113787;28;20081;-50
2022/11/27 07:38:26;;;;;;;6.95;3.20;;;;;;;;;;5113772;28;20062;-52
2022/11/27 07:40:52;;;;;;;5.65;3.00;;;;;;;;;;5113417;28;20072;-53
2022/11/27 07:43:18;;;;;;;5.53;3.28;;;;;;;;;;5106280;28;20028;-52
2022/11/27 07:45:44;;;;;;;6.70;3.78;;;;;;;;;;5104822;28;20028;-52
2022/11/27 07:48:10;;;;;;;6.97;4.03;;;;;;;;;;5094331;28;20479;-52
2022/11/27 07:50:36;;;;;;;5.60;3.40;;;;;;;;;;5093058;28;20028;-54
2022/11/27 07:53:02;;;;;;;7.30;3.72;;;;;;;;;;5092962;28;20110;-54
2022/11/27 07:55:28;;;;;;;5.50;3.35;;;;;;;;;;5092150;28;20085;-55
2022/11/27 07:57:54;;;;;;;7.82;3.85;;;;;;;;;;5096651;28;20019;-52
2022/11/27 08:00:20;;;;;;;5.03;3.33;;;;;;;;;;5104334;28;20565;-50
2022/11/27 08:02:46;;;;;;;5.03;3.33;;;;;;;;;;5100800;28;20450;-54
2022/11/27 08:05:12;;;;;;;5.75;3.47;;;;;;;;;;5127120;27;20023;-53
2022/11/27 08:07:38;;;;;;;4.40;2.95;;;;;;;;;;5119019;27;20032;-53
2022/11/27 08:10:04;;;;;;;4.25;2.72;;;;;;;;;;5099966;27;20035;-54
2022/11/27 08:12:30;;;;;;;3.65;2.65;;;;;;;;;;5091752;28;20035;-53
2022/11/27 08:14:56;;;;;;;4.00;2.65;;;;;;;;;;5091746;28;20035;-52
2022/11/27 08:17:22;;;;;;;4.05;2.58;;;;;;;;;;5109649;28;20031;-54
2022/11/27 08:19:48;;;;;;;3.78;2.60;;;;;;;;;;5112172;28;20051;-54
2022/11/27 08:22:18;;;;;;;4.88;2.70;;;;;;;;;;5131472;27;20027;-52
2022/11/27 08:24:44;;;;;;;3.92;2.67;;;;;;;;;;5133013;27;20030;-54
2022/11/27 08:27:10;;;;;;;3.40;2.15;;;;;;;;;;5130037;27;20034;-53
2022/11/27 08:29:37;;;;;;;4.45;2.88;;;;;;;;;;5103406;27;20031;-55
2022/11/27 08:32:04;;;;;;;3.42;2.33;;;;;;;;;;5100297;28;20034;-52
2022/11/27 08:34:30;;;;;;;4.45;2.50;;;;;;;;;;5091474;28;20415;-53
2022/11/27 08:36:56;;;;;;;3.03;2.17;;;;;;;;;;5091552;28;20074;-51
2022/11/27 08:39:22;;;;;;;3.85;2.30;;;;;;;;;;5091261;28;20020;-51
2022/11/27 08:41:48;;;;;;;4.07;2.20;;;;;;;;;;5091428;28;20111;-51
2022/11/27 08:44:14;;;;;;;4.05;2.08;;;;;;;;;;5090378;28;20089;-50
2022/11/27 08:46:39;;;;;;;3.08;2.20;;;;;;;;;;5100922;28;20049;-53
2022/11/27 08:49:05;;;;;;;3.55;2.10;;;;;;;;;;5109608;28;20058;-53
2022/11/27 08:51:31;;;;;;;2.40;2.00;;;;;;;;;;5094114;28;20032;-54
2022/11/27 08:53:57;;;;;;;2.10;1.85;;;;;;;;;;5098904;28;20043;-54
2022/11/27 08:56:24;;;;;;;3.15;1.90;;;;;;;;;;5091598;28;20063;-53
2022/11/27 08:58:50;;;;;;;4.05;2.15;;;;;;;;;;5091924;28;20028;-51
2022/11/27 09:01:17;;;;;;;2.22;1.83;;;;;;;;;;5093267;28;20028;-51
2022/11/27 09:03:43;;;;;;;3.38;1.73;;;;;;;;;;5097769;28;20126;-53
2022/11/27 09:06:10;;;;;;;2.63;1.80;;;;;;;;;;5109949;28;20031;-54
2022/11/27 09:08:37;;;;;;;2.83;2.03;;;;;;;;;;5111124;28;20110;-54
2022/11/27 09:11:03;;;;;;;2.63;2.00;;;;;;;;;;5111045;28;20094;-53
2022/11/27 09:13:29;;;;;;;2.75;1.67;;;;;;;;;;5110828;28;20165;-52
2022/11/27 09:15:56;;;;;;;2.70;1.83;;;;;;;;;;5110964;28;20053;-54
2022/11/27 09:18:22;;;;;;;3.00;1.80;;;;;;;;;;5110847;28;20433;-51
2022/11/27 09:20:55;;;;;;;4.60;2.47;;;;;;;;;;5110973;28;20104;-54
2022/11/27 09:23:21;;;;;;;3.10;1.95;;;;;;;;;;5110661;28;20024;-53
2022/11/27 09:25:48;;;;;;;2.95;1.75;;;;;;;;;;5111004;28;20418;-54
2022/11/27 09:28:14;;;;;;;3.92;2.33;;;;;;;;;;5111155;28;20485;-53
2022/11/27 09:30:40;;;;;;;2.20;2.00;;;;;;;;;;5108655;28;20110;-55
2022/11/27 09:33:06;;;;;;;3.33;2.08;;;;;;;;;;5089938;28;20503;-54
2022/11/27 09:35:32;;;;;;;2.83;1.88;;;;;;;;;;5090237;28;20032;-54
2022/11/27 09:37:58;;;;;;;2.35;1.60;;;;;;;;;;5090037;28;20031;-54
2022/11/27 09:40:24;;;;;;;2.25;1.73;;;;;;;;;;5090341;28;20050;-52
2022/11/27 09:42:56;;;;;;;4.55;2.10;;;;;;;;;;5090667;28;20025;-54
2022/11/27 09:45:24;;;;;;;3.20;2.05;;;;;;;;;;5090318;28;20454;-53
2022/11/27 09:47:54;;;;;;;2.88;1.95;;;;;;;;;;5090155;28;20048;-55
2022/11/27 09:50:23;;;;;;;3.42;2.08;;;;;;;;;;5090138;28;20111;-53
2022/11/27 09:52:58;;;;;;;3.03;1.88;;;;;;;;;;5090512;28;20027;-55
2022/11/27 09:55:26;;;;;;;2.42;1.90;;;;;;;;;;5090130;28;20085;-52
2022/11/27 09:57:58;;;;;;;4.05;2.28;;;;;;;;;;5090098;28;20029;-52
2022/11/27 10:00:24;;;;;;;2.60;1.70;;;;;;;;;;5090118;28;20017;-51
2022/11/27 10:02:50;;;;;;;2.65;1.90;;;;;;;;;;5090365;28;20047;-54
2022/11/27 10:05:18;;;;;;;2.85;1.80;;;;;;;;;;5090212;28;20028;-55
2022/11/27 10:07:51;;;;;;;2.55;1.67;;;;;;;;;;5090031;28;20036;-52
2022/11/27 10:10:23;;;;;;;2.78;1.70;;;;;;;;;;5091611;28;20764;-54
2022/11/27 10:13:08;;;;;;;2.47;1.60;;;;;;;;;;5108660;28;20480;-54
2022/11/27 10:15:41;;;;;;;1.60;1.50;;;;;;;;;;5102403;28;20039;-54
2022/11/27 10:18:26;;;;;;;1.60;1.30;;;;;;;;;;5088445;28;20154;-53
2022/11/27 10:20:58;;;;;;;1.40;1.30;;;;;;;;;;5088527;28;20024;-52
2022/11/27 10:23:29;;;;;;;1.40;1.23;;;;;;;;;;5088661;28;20503;-54
2022/11/27 10:25:59;;;;;;;1.80;1.10;;;;;;;;;;5088755;28;20499;-54
2022/11/27 10:28:41;;;;;;;1.92;1.20;;;;;;;;;;5088903;28;20024;-53
2022/11/27 10:31:13;;;;;;;1.67;1.33;;;;;;;;;;5088099;28;20033;-54
2022/11/27 10:33:39;;;;;;;1.58;1.13;;;;;;;;;;5088057;28;20032;-54
2022/11/27 10:36:05;;;;;;;1.27;1.05;;;;;;;;;;5087936;28;20032;-55
2022/11/27 10:38:34;;;;;;;1.38;1.20;;;;;;;;;;5087943;28;20020;-51
2022/11/27 10:41:10;;;;;;;1.30;0.95;;;;;;;;;;5087980;28;20051;-54
2022/11/27 10:43:36;;;;;;;1.15;0.77;;;;;;;;;;5087923;28;20027;-54
2022/11/27 10:46:02;;;;;;;1.17;0.90;;;;;;;;;;5091409;28;20032;-53
2022/11/27 10:48:28;;;;;;;1.20;0.95;;;;;;;;;;5092338;28;20024;-54
2022/11/27 10:50:55;;;;;;;1.00;0.90;;;;;;;;;;5092101;28;20028;-54
2022/11/27 10:53:30;;;;;;;1.33;0.90;;;;;;;;;;5102175;28;20084;-53
2022/11/27 10:56:05;;;;;;;1.17;0.93;;;;;;;;;;5104745;28;20032;-54
2022/11/27 10:58:31;;;;;;;0.77;0.70;;;;;;;;;;5092340;28;20395;-55
2022/11/27 11:01:04;;;;;;;1.67;1.02;;;;;;;;;;5096351;28;20032;-54
2022/11/27 11:03:30;;;;;;;1.50;1.02;;;;;;;;;;5092041;28;20028;-54
2022/11/27 11:05:58;;;;;;;0.90;0.80;;;;;;;;;;5092690;28;20031;-54
2022/11/27 11:08:25;;;;;;;1.58;0.95;;;;;;;;;;5097945;28;20077;-54
2022/11/27 11:10:58;;;;;;;1.35;1.00;;;;;;;;;;5111679;28;20030;-52
2022/11/27 11:13:27;;;;;;;1.38;1.10;;;;;;;;;;5110294;28;20073;-51
2022/11/27 11:15:53;;;;;;;1.33;0.95;;;;;;;;;;5107355;27;20717;-55
2022/11/27 11:18:20;;;;;;;1.50;1.10;;;;;;;;;;5100221;28;20036;-55
2022/11/27 11:20:47;;;;;;;1.20;1.10;;;;;;;;;;5100330;28;20035;-54
2022/11/27 11:23:27;;;;;;;2.17;1.30;;;;;;;;;;5102213;28;20035;-53
2022/11/27 11:25:55;;;;;;;2.63;1.33;;;;;;;;;;5098691;28;20032;-55
2022/11/27 11:28:21;;;;;;;1.77;1.35;;;;;;;;;;5101264;28;20082;-56
2022/11/27 11:30:56;;;;;;;2.72;1.80;;;;;;;;;;5099589;28;20031;-54
2022/11/27 11:33:21;;;;;;;;;;;;;;;;;;5103172;28;20035;-55
2022/11/27 11:35:52;;;;;;;2.60;1.40;;;;;;;;;;5098958;28;19926;-53
2022/11/27 11:38:22;;;;;;;3.22;1.40;;;;;;;;;;5102003;28;20577;-53
2022/11/27 11:40:59;;;;;;;2.30;1.27;;;;;;;;;;5100447;28;20059;-55
2022/11/27 11:43:27;;;;;;;0.95;0.85;;;;;;;;;;5101773;28;20032;-54
2022/11/27 11:45:55;;;;;;;1.50;1.00;;;;;;;;;;5098321;28;20042;-55
2022/11/27 11:48:21;;;;;;;1.13;0.93;;;;;;;;;;5101415;28;20051;-52
2022/11/27 11:51:16;;;;;;;1.85;0.93;;;;;;;;;;5099639;28;20062;-56
2022/11/27 11:53:44;;;;;;;1.45;1.08;;;;;;;;;;5081319;28;20040;-55
2022/11/27 11:56:28;;;;;;;1.30;1.20;;;;;;;;;;5097018;28;20055;-55
2022/11/27 11:59:13;;;;;;;1.67;1.30;;;;;;;;;;5101584;28;20028;-55
2022/11/27 12:01:52;;;;;;;2.65;1.42;;;;;;;;;;5090962;28;20473;-54
2022/11/27 12:04:37;;;;;;;2.83;1.42;;;;;;;;;;5093585;28;20020;-53
2022/11/27 12:07:18;;;;;;;3.42;1.95;;;;;;;;;;5111412;28;20474;-57
2022/11/27 12:09:44;;;;;;;3.25;1.77;;;;;;;;;;5092742;28;20471;-56
2022/11/27 12:12:28;;;;;;;2.75;1.70;;;;;;;;;;5090952;28;20040;-57
2022/11/27 12:14:59;;;;;;;3.05;1.75;;;;;;;;;;5099672;28;20557;-55
2022/11/27 12:17:25;;;;;;;2.65;1.90;;;;;;;;;;5092034;28;20035;-55
2022/11/27 12:19:58;;;;;;;2.70;1.58;;;;;;;;;;5092250;28;20020;-54
2022/11/27 12:22:31;;;;;;;2.58;1.40;;;;;;;;;;5089274;28;20031;-55
2022/11/27 12:25:02;;;;;;;1.92;1.30;;;;;;;;;;5108609;28;20027;-54
2022/11/27 12:27:45;;;;;;;2.65;1.25;;;;;;;;;;5084546;28;20063;-55
2022/11/27 12:30:11;;;;;;;2.10;1.38;;;;;;;;;;5115613;27;20382;-55
2022/11/27 12:32:50;;;;;;;2.08;1.33;;;;;;;;;;5089039;28;20119;-56
2022/11/27 12:35:34;;;;;;;2.05;1.13;;;;;;;;;;5088214;28;20079;-54
2022/11/27 12:38:00;;;;;;;;;;;;;;;;;;5088750;28;20073;-54
2022/11/27 12:40:45;;;;;;;2.75;1.35;;;;;;;;;;5088122;28;20334;-55
2022/11/27 12:43:11;;;;;;;2.47;1.10;;;;;;;;;;5095542;28;20733;-55
2022/11/27 12:45:40;;;;;;;2.03;1.20;;;;;;;;;;5087802;28;20115;-53
2022/11/27 12:48:16;;;;;;;1.73;1.20;;;;;;;;;;5089324;28;20115;-56
2022/11/27 12:50:45;;;;;;;2.55;1.10;;;;;;;;;;5107636;28;20136;-59
2022/11/27 12:53:17;;;;;;;2.65;1.20;;;;;;;;;;5091904;28;20036;-57
2022/11/27 12:55:46;;;;;;;1.77;1.20;;;;;;;;;;5092096;28;20031;-57
2022/11/27 12:58:16;;;;;;;2.40;1.10;;;;;;;;;;5107503;28;20102;-58
2022/11/27 13:00:43;;;;;;;3.55;1.20;;;;;;;;;;5102277;28;20026;-57
2022/11/27 13:03:11;;;;;;;2.60;1.45;;;;;;;;;;5095209;28;20190;-56
2022/11/27 13:05:43;;;;;;;2.17;1.30;;;;;;;;;;5095894;28;20040;-58
2022/11/27 13:08:09;;;;;;;3.20;1.48;;;;;;;;;;5104946;28;20114;-58
2022/11/27 13:10:39;;;;;;;1.92;1.10;;;;;;;;;;5080808;28;20503;-58
2022/11/27 13:13:08;;;;;;;4.50;1.50;;;;;;;;;;5079490;28;20494;-56
2022/11/27 13:15:45;;;;;;;1.90;1.40;;;;;;;;;;5102602;28;20020;-56
2022/11/27 13:18:16;;;;;;;3.28;1.55;;;;;;;;;;5100667;28;20031;-58
2022/11/27 13:20:43;;;;;;;2.40;1.45;;;;;;;;;;5100500;28;20016;-58
2022/11/27 13:23:09;;;;;;;3.05;1.25;;;;;;;;;;5091830;28;20027;-58
2022/11/27 13:25:39;;;;;;;1.90;1.15;;;;;;;;;;5091001;28;20103;-58
2022/11/27 13:28:06;;;;;;;2.28;1.23;;;;;;;;;;5076633;28;20035;-58
2022/11/27 13:30:33;;;;;;;1.90;1.20;;;;;;;;;;5078693;28;20020;-58
2022/11/27 13:33:00;;;;;;;2.50;1.40;;;;;;;;;;5106210;28;20499;-57
2022/11/27 13:35:42;;;;;;;2.40;1.27;;;;;;;;;;5070398;28;20502;-59
2022/11/27 13:38:14;;;;;;;3.17;1.20;;;;;;;;;;5105337;28;20031;-58
2022/11/27 13:40:40;;;;;;;2.35;1.20;;;;;;;;;;5095050;28;20024;-57
2022/11/27 13:43:18;;;;;;;1.55;1.00;;;;;;;;;;5096826;28;20047;-57
2022/11/27 13:45:45;;;;;;;2.13;1.23;;;;;;;;;;5080283;28;20031;-57
2022/11/27 13:48:29;;;;;;;3.30;1.70;;;;;;;;;;5097966;28;20032;-58
2022/11/27 13:50:56;;;;;;;3.22;1.50;;;;;;;;;;5093876;28;20024;-58
2022/11/27 13:53:29;;;;;;;1.80;1.50;;;;;;;;;;5072610;28;20032;-56
2022/11/27 13:55:56;;;;;;;1.67;1.27;;;;;;;;;;5089211;28;20031;-57
2022/11/27 13:58:31;;;;;;;2.83;1.30;;;;;;;;;;5102629;28;20027;-57
2022/11/27 14:00:58;;;;;;;3.28;1.50;;;;;;;;;;5070707;28;20111;-57
2022/11/27 14:03:28;;;;;;;2.97;1.58;;;;;;;;;;5093698;28;20017;-58
2022/11/27 14:05:54;;;;;;;2.88;1.60;;;;;;;;;;5092413;28;20024;-58
2022/11/27 14:08:23;;;;;;;1.90;1.48;;;;;;;;;;5106108;28;20416;-58
2022/11/27 14:10:52;;;;;;;2.65;1.30;;;;;;;;;;5092477;28;20024;-58
2022/11/27 14:13:18;;;;;;;2.55;1.10;;;;;;;;;;5094184;28;20100;-57
2022/11/27 14:15:57;;;;;;;2.50;1.30;;;;;;;;;;5082786;28;20036;-58
2022/11/27 14:18:23;;;;;;;3.20;1.23;;;;;;;;;;5105414;28;20047;-60
2022/11/27 14:20:49;;;;;;;1.67;1.05;;;;;;;;;;5085479;28;20540;-58
2022/11/27 14:23:25;;;;;;;1.90;1.13;;;;;;;;;;5078180;28;20488;-59
2022/11/27 14:26:00;;;;;;;3.47;1.27;;;;;;;;;;5106640;28;20107;-58
2022/11/27 14:28:26;;;;;;;1.95;1.05;;;;;;;;;;5099246;28;20036;-58
2022/11/27 14:30:56;;;;;;;1.98;1.10;;;;;;;;;;5105865;28;20386;-57
2022/11/27 14:33:23;;;;;;;5.53;1.33;;;;;;;;;;5094632;28;20032;-58
2022/11/27 14:35:51;;;;;;;4.22;1.20;;;;;;;;;;5105856;28;20065;-57
2022/11/27 14:38:17;;;;;;;9.10;1.70;;;;;;;;;;5105058;28;20023;-57
2022/11/27 14:40:43;;;;;;;4.07;1.65;;;;;;;;;;5106417;28;20108;-58
2022/11/27 14:43:10;;;;;;;3.63;1.27;;;;;;;;;;5106683;28;20031;-59
2022/11/27 14:45:36;;;;;;;3.20;1.48;;;;;;;;;;5105019;28;20115;-59
2022/11/27 14:48:03;;;;;;;2.38;1.40;;;;;;;;;;5101031;28;20071;-58
2022/11/27 14:50:29;;;;;;;3.53;1.73;;;;;;;;;;5105817;28;20104;-57
2022/11/27 14:52:56;;;;;;;3.15;1.80;;;;;;;;;;5081532;28;20032;-58
2022/11/27 14:55:23;;;;;;;2.42;1.52;;;;;;;;;;5098089;28;20106;-58
2022/11/27 14:57:49;;;;;;;2.72;1.40;;;;;;;;;;5098065;28;20081;-59
2022/11/27 15:00:16;;;;;;;4.75;1.85;;;;;;;;;;5105118;28;20027;-60
2022/11/27 15:02:42;;;;;;;4.28;1.90;;;;;;;;;;5091478;28;20031;-58
2022/11/27 15:05:16;;;;;;;1.90;1.35;;;;;;;;;;5097597;28;20115;-58
2022/11/27 15:07:42;;;;;;;4.53;1.52;;;;;;;;;;5108270;28;20035;-58
2022/11/27 15:10:16;;;;;;;5.32;2.10;;;;;;;;;;5098069;28;20043;-57
2022/11/27 15:12:46;;;;;;;3.70;1.90;;;;;;;;;;5102245;28;20071;-57
2022/11/27 15:15:19;;;;;;;4.00;1.85;;;;;;;;;;5102667;28;20032;-58
2022/11/27 15:17:49;;;;;;;4.70;1.67;;;;;;;;;;5094793;28;20059;-58
2022/11/27 15:20:17;;;;;;;3.47;1.55;;;;;;;;;;5103810;28;20107;-57
2022/11/27 15:22:50;;;;;;;3.35;1.50;;;;;;;;;;5099484;28;20058;-58
2022/11/27 15:25:35;;;;;;;3.30;1.42;;;;;;;;;;5100536;28;20024;-57
2022/11/27 15:28:01;;;;;;;;;;;;;;;;;;5103357;28;20132;-57
2022/11/27 15:30:27;;;;;;;3.20;1.42;;;;;;;;;;5092390;28;20399;-57
2022/11/27 15:32:54;;;;;;;3.33;1.60;;;;;;;;;;5083720;28;20114;-58
2022/11/27 15:35:21;;;;;;;2.50;1.33;;;;;;;;;;5109252;28;20087;-58
2022/11/27 15:37:47;;;;;;;4.15;1.40;;;;;;;;;;5093331;27;20570;-56
2022/11/27 15:40:29;;;;;;;2.65;1.40;;;;;;;;;;5129241;27;20030;-56
2022/11/27 15:42:55;;;;;;;2.63;1.00;;;;;;;;;;5098757;27;20032;-58
2022/11/27 15:45:21;;;;;;;2.88;1.77;;;;;;;;;;5100328;27;20032;-58
2022/11/27 15:47:47;;;;;;;2.42;1.25;;;;;;;;;;5094406;28;20622;-59
2022/11/27 15:50:14;;;;;;;2.17;1.48;;;;;;;;;;5100814;28;20039;-58
2022/11/27 15:52:40;;;;;;;2.75;1.58;;;;;;;;;;5101361;28;20024;-58
2022/11/27 15:55:06;;;;;;;1.83;1.10;;;;;;;;;;5108868;28;20039;-58
2022/11/27 15:57:32;;;;;;;1.52;1.23;;;;;;;;;;5087402;28;20076;-58
2022/11/27 15:59:58;;;;;;;2.33;1.38;;;;;;;;;;5085106;28;20027;-59
2022/11/27 16:02:29;;;;;;;2.80;1.20;;;;;;;;;;5080088;28;20403;-58
2022/11/27 16:04:55;;;;;;;2.15;0.90;;;;;;;;;;5082878;28;21653;-58
2022/11/27 16:07:21;;;;;;;2.63;1.38;;;;;;;;;;5096820;28;20035;-58
2022/11/27 16:09:47;;;;;;;2.30;1.20;;;;;;;;;;5101247;28;20031;-58
2022/11/27 16:12:13;;;;;;;2.58;1.10;;;;;;;;;;5102648;28;20084;-58
2022/11/27 16:14:39;;;;;;;2.22;1.13;;;;;;;;;;5090514;28;20027;-58
2022/11/27 16:17:05;;;;;;;4.88;1.13;;;;;;;;;;5087321;28;20026;-59
2022/11/27 16:19:31;;;;;;;3.30;1.65;;;;;;;;;;5102866;28;20080;-58
2022/11/27 16:21:57;;;;;;;3.75;2.10;;;;;;;;;;5090023;28;20020;-58
2022/11/27 16:24:23;;;;;;;2.70;1.63;;;;;;;;;;5109006;27;20132;-58
2022/11/27 16:26:49;;;;;;;3.20;1.85;;;;;;;;;;5089592;28;20024;-58
2022/11/27 16:29:15;;;;;;;2.80;1.60;;;;;;;;;;5090923;28;20054;-58
2022/11/27 16:31:41;;;;;;;2.13;1.60;;;;;;;;;;5100339;28;20019;-58
2022/11/27 16:34:07;;;;;;;2.13;1.38;;;;;;;;;;5093375;28;20571;-59
2022/11/27 16:36:33;;;;;;;2.42;1.35;;;;;;;;;;5085502;28;20028;-59
2022/11/27 16:38:59;;;;;;;2.15;1.40;;;;;;;;;;5090154;28;20032;-58
2022/11/27 16:41:27;;;;;;;1.95;1.23;;;;;;;;;;5108650;28;20541;-58
2022/11/27 16:43:54;;;;;;;3.28;1.27;;;;;;;;;;5083853;28;20026;-58
2022/11/27 16:46:22;;;;;;;2.40;1.35;;;;;;;;;;5106731;28;20028;-58
2022/11/27 16:48:48;;;;;;;2.17;1.30;;;;;;;;;;5089170;28;20032;-58
2022/11/27 16:51:18;;;;;;;1.77;1.30;;;;;;;;;;5095536;28;20066;-59
2022/11/27 16:53:46;;;;;;;3.08;1.50;;;;;;;;;;5099232;27;20094;-59
2022/11/27 16:56:13;;;;;;;2.60;1.58;;;;;;;;;;5109277;28;20031;-58
2022/11/27 16:58:40;;;;;;;3.00;1.80;;;;;;;;;;5079131;28;20019;-59
2022/11/27 17:01:07;;;;;;;3.10;1.60;;;;;;;;;;5108881;28;20015;-58
2022/11/27 17:03:34;;;;;;;4.22;1.65;;;;;;;;;;5105101;28;20027;-58
2022/11/27 17:06:00;;;;;;;2.60;1.30;;;;;;;;;;5095921;28;20023;-59
2022/11/27 17:08:26;;;;;;;2.75;1.63;;;;;;;;;;5092836;28;20024;-60
2022/11/27 17:10:52;;;;;;;2.92;1.60;;;;;;;;;;5094582;28;20457;-58
2022/11/27 17:13:18;;;;;;;3.13;1.60;;;;;;;;;;5084946;28;20027;-58
2022/11/27 17:15:44;;;;;;;4.40;2.05;;;;;;;;;;5095302;28;20028;-58
2022/11/27 17:18:10;;;;;;;3.42;1.38;;;;;;;;;;5097551;28;20024;-58
2022/11/27 17:20:36;;;;;;;3.58;1.52;;;;;;;;;;5090196;28;20028;-59
2022/11/27 17:23:02;;;;;;;2.58;1.50;;;;;;;;;;5107094;28;20360;-58
2022/11/27 17:25:31;;;;;;;3.33;1.73;;;;;;;;;;5084495;28;20028;-58
2022/11/27 17:27:57;;;;;;;4.75;1.88;;;;;;;;;;5088189;28;20367;-59
2022/11/27 17:30:23;;;;;;;4.07;2.10;;;;;;;;;;5099412;28;20501;-59
2022/11/27 17:32:50;;;;;;;3.50;1.73;;;;;;;;;;5105069;28;20024;-58
2022/11/27 17:35:16;;;;;;;4.22;2.17;;;;;;;;;;5093680;28;20084;-59
2022/11/27 17:37:43;;;;;;;7.57;2.20;;;;;;;;;;5091063;28;20119;-58
2022/11/27 17:40:09;;;;;;;5.45;2.50;;;;;;;;;;5097290;28;20183;-58
2022/11/27 17:42:35;;;;;;;4.60;1.98;;;;;;;;;;5104367;28;20027;-58
2022/11/27 17:45:01;;;;;;;4.55;2.08;;;;;;;;;;5094488;28;20031;-58
2022/11/27 17:47:27;;;;;;;3.45;1.77;;;;;;;;;;5101274;28;20024;-58
2022/11/27 17:49:53;;;;;;;2.20;1.35;;;;;;;;;;5083134;28;20398;-58
2022/11/27 17:52:19;;;;;;;4.38;1.58;;;;;;;;;;5087658;28;20027;-58
2022/11/27 17:54:45;;;;;;;4.40;2.30;;;;;;;;;;5095988;28;20555;-56
2022/11/27 17:57:11;;;;;;;5.40;2.10;;;;;;;;;;5098175;28;20020;-59
2022/11/27 17:59:37;;;;;;;4.10;1.80;;;;;;;;;;5112724;28;20032;-58
2022/11/27 18:02:03;;;;;;;4.55;1.90;;;;;;;;;;5100051;28;20433;-57
2022/11/27 18:04:29;;;;;;;4.10;1.90;;;;;;;;;;5097509;28;20067;-58
2022/11/27 18:06:56;;;;;;;2.38;1.67;;;;;;;;;;5109089;28;20023;-58
2022/11/27 18:09:22;;;;;;;3.63;2.42;;;;;;;;;;5092111;28;20115;-57
2022/11/27 18:11:48;;;;;;;5.22;2.63;;;;;;;;;;5095401;28;20050;-58
2022/11/27 18:14:14;;;;;;;4.80;2.28;;;;;;;;;;5095455;28;20533;-58
2022/11/27 18:16:40;;;;;;;3.15;1.80;;;;;;;;;;5104933;28;20028;-58
2022/11/27 18:19:07;;;;;;;3.35;1.75;;;;;;;;;;5098648;28;20032;-59
2022/11/27 18:21:34;;;;;;;4.82;1.88;;;;;;;;;;5093894;28;20020;-58
2022/11/27 18:24:00;;;;;;;3.58;1.75;;;;;;;;;;5106516;28;20027;-59
2022/11/27 18:26:27;;;;;;;3.00;1.52;;;;;;;;;;5097727;28;20023;-58
2022/11/27 18:28:54;;;;;;;4.60;1.83;;;;;;;;;;5100390;28;20047;-59
2022/11/27 18:31:20;;;;;;;4.53;2.20;;;;;;;;;;5095297;28;20509;-59
2022/11/27 18:33:46;;;;;;;4.45;1.83;;;;;;;;;;5092855;28;20035;-59
2022/11/27 18:36:13;;;;;;;6.68;2.10;;;;;;;;;;5099117;28;20028;-59
2022/11/27 18:38:41;;;;;;;4.00;1.92;;;;;;;;;;5108222;28;20027;-58
2022/11/27 18:41:11;;;;;;;3.08;1.13;;;;;;;;;;5096605;28;20092;-58
2022/11/27 18:43:37;;;;;;;3.28;1.75;;;;;;;;;;5092270;28;20028;-58
2022/11/27 18:46:04;;;;;;;4.15;2.17;;;;;;;;;;5108744;28;20023;-59
2022/11/27 18:48:30;;;;;;;5.13;2.25;;;;;;;;;;5107173;28;20064;-59
2022/11/27 18:51:03;;;;;;;4.45;2.22;;;;;;;;;;5105995;28;20035;-58
2022/11/27 18:53:30;;;;;;;4.13;1.77;;;;;;;;;;5095826;28;20166;-59
2022/11/27 18:56:05;;;;;;;6.75;1.98;;;;;;;;;;5093858;28;20027;-58
2022/11/27 18:58:34;;;;;;;3.63;1.90;;;;;;;;;;5100111;28;20591;-58
2022/11/27 19:01:08;;;;;;;4.95;2.20;;;;;;;;;;5101174;28;20027;-59
2022/11/27 19:03:37;;;;;;;5.93;2.03;;;;;;;;;;5104184;28;20038;-60
2022/11/27 19:06:04;;;;;;;3.05;1.65;;;;;;;;;;5095377;28;20035;-60
2022/11/27 19:08:31;;;;;;;4.82;2.58;;;;;;;;;;5100920;28;20537;-59
2022/11/27 19:11:00;;;;;;;3.53;1.88;;;;;;;;;;5097812;28;20031;-59
2022/11/27 19:13:27;;;;;;;3.17;1.85;;;;;;;;;;5105552;28;20051;-59
2022/11/27 19:15:53;;;;;;;3.58;1.63;;;;;;;;;;5085028;28;20446;-59
2022/11/27 19:18:19;;;;;;;6.47;1.80;;;;;;;;;;5093089;28;20039;-59
2022/11/27 19:20:46;;;;;;;4.07;1.90;;;;;;;;;;5105861;28;20024;-58
2022/11/27 19:23:14;;;;;;;4.68;1.90;;;;;;;;;;5109265;28;20016;-59
2022/11/27 19:25:40;;;;;;;6.70;2.60;;;;;;;;;;5104031;28;20034;-59
2022/11/27 19:28:07;;;;;;;2.67;1.67;;;;;;;;;;5101732;28;20023;-59
2022/11/27 19:30:37;;;;;;;5.40;1.73;;;;;;;;;;5091704;28;20120;-60
2022/11/27 19:33:03;;;;;;;2.15;1.55;;;;;;;;;;5100490;28;20052;-58
2022/11/27 19:35:30;;;;;;;5.55;1.63;;;;;;;;;;5100611;28;20032;-59
2022/11/27 19:37:57;;;;;;;3.47;1.63;;;;;;;;;;5093385;28;20028;-59
2022/11/27 19:40:23;;;;;;;3.55;1.60;;;;;;;;;;5096124;28;20467;-59
2022/11/27 19:42:50;;;;;;;4.55;1.80;;;;;;;;;;5100552;28;20529;-58
2022/11/27 19:45:18;;;;;;;6.45;2.03;;;;;;;;;;5105669;28;20031;-59
2022/11/27 19:47:44;;;;;;;2.85;1.60;;;;;;;;;;5095990;28;20019;-59
2022/11/27 19:50:11;;;;;;;4.80;2.20;;;;;;;;;;5096557;28;20520;-60
2022/11/27 19:52:37;;;;;;;2.88;1.55;;;;;;;;;;5089559;28;20023;-58
2022/11/27 19:55:03;;;;;;;5.03;1.95;;;;;;;;;;5094394;28;20020;-59